createdAt,value
2022-08-05T00:02:20.366Z,68.82
2022-08-05T00:07:59.663Z,69.19
2022-08-05T00:12:55.699Z,69.03
2022-08-05T00:17:59.093Z,68.72
2022-08-05T00:23:13.129Z,68.72
2022-08-05T00:28:16.296Z,68.44
2022-08-05T00:34:53.546Z,68.90
2022-08-05T00:38:56.392Z,69.93
2022-08-05T00:44:02.456Z,69.65
2022-08-05T00:49:05.240Z,69.84
2022-08-05T00:54:14.004Z,69.90
2022-08-05T00:59:16.798Z,70.21
2022-08-05T01:04:20.107Z,70.08
2022-08-05T01:09:30.524Z,70.49
2022-08-05T01:15:05.615Z,70.40
2022-08-05T01:20:59.628Z,71.17
2022-08-05T01:26:19.872Z,71.11
2022-08-05T01:31:42.781Z,71.27
2022-08-05T01:36:53.933Z,71.47
2022-08-05T01:41:58.618Z,71.61
2022-08-05T01:47:01.712Z,71.97
2022-08-05T01:52:17.524Z,71.99
2022-08-05T01:58:11.869Z,71.99
2022-08-05T02:02:56.180Z,72.05
2022-08-05T02:08:01.416Z,72.57
2022-08-05T02:13:17.721Z,72.30
2022-08-05T02:18:32.147Z,72.80
2022-08-05T02:23:39.736Z,72.49
2022-08-05T02:28:45.950Z,72.19
2022-08-05T02:33:57.204Z,72.37
2022-08-05T02:39:02.104Z,72.35
2022-08-05T02:44:12.219Z,72.89
2022-08-05T02:49:16.879Z,72.93
2022-08-05T02:54:36.072Z,73.08
2022-08-05T02:59:50.340Z,73.70
2022-08-05T03:04:55.459Z,73.69
2022-08-05T03:09:58.265Z,73.49
2022-08-05T03:15:06.745Z,74.17
2022-08-05T03:20:10.770Z,74.00
2022-08-05T03:25:33.939Z,74.10
2022-08-05T03:30:41.081Z,74.22
2022-08-05T03:35:45.953Z,74.31
2022-08-05T03:40:48.964Z,74.55
2022-08-05T03:45:57.329Z,74.59
2022-08-05T03:52:39.292Z,74.70
2022-08-05T03:56:50.046Z,74.88
2022-08-05T04:09:39.010Z,74.87
2022-08-05T04:14:57.737Z,74.75
2022-08-05T04:20:01.528Z,74.54
2022-08-05T04:25:06.149Z,74.41
2022-08-05T04:30:14.156Z,74.34
2022-08-05T04:35:19.783Z,74.20
2022-08-05T04:40:22.984Z,74.49
2022-08-05T04:45:47.825Z,74.70
2022-08-05T04:51:01.601Z,74.91
2022-08-05T04:56:15.419Z,75.03
2022-08-05T05:02:06.686Z,75.19
2022-08-05T05:06:57.870Z,74.93
2022-08-05T05:12:03.054Z,74.80
2022-08-05T05:17:07.469Z,74.80
2022-08-05T05:22:24.382Z,74.79
2022-08-05T05:27:44.994Z,74.66
2022-08-05T05:32:49.223Z,74.41
2022-08-05T05:38:01.836Z,74.05
2022-08-05T05:43:05.017Z,73.88
2022-08-05T05:48:11.499Z,73.34
2022-08-05T05:53:22.386Z,72.86
2022-08-05T05:58:30.273Z,72.36
2022-08-05T06:03:54.016Z,72.11
2022-08-05T06:08:59.394Z,71.52
2022-08-05T06:14:02.284Z,70.80
2022-08-05T06:19:07.333Z,69.87
2022-08-05T06:24:11.929Z,69.49
2022-08-05T06:29:23.477Z,69.29
2022-08-05T06:34:31.812Z,69.23
2022-08-05T06:39:34.699Z,68.51
2022-08-05T06:44:37.548Z,68.11
2022-08-05T06:50:01.676Z,67.83
2022-08-05T06:55:03.346Z,67.25
2022-08-05T07:00:07.746Z,66.76
2022-08-05T07:05:14.381Z,66.28
2022-08-05T07:10:21.779Z,66.00
2022-08-05T07:16:01.089Z,65.47
2022-08-05T07:21:07.750Z,64.80
2022-08-05T07:26:13.377Z,64.71
2022-08-05T07:31:17.810Z,64.10
2022-08-05T07:36:40.862Z,63.54
2022-08-05T07:42:13.474Z,63.21
2022-08-05T07:47:07.976Z,62.59
2022-08-05T07:52:12.975Z,62.31
2022-08-05T07:57:58.724Z,61.76
2022-08-05T08:03:14.038Z,61.15
2022-08-05T08:08:01.133Z,60.53
2022-08-05T08:13:04.250Z,59.94
2022-08-05T08:18:14.348Z,58.53
2022-08-05T08:24:01.541Z,57.82
2022-08-05T08:28:59.471Z,57.21
2022-08-05T08:34:04.092Z,56.50
2022-08-05T08:39:15.074Z,55.73
2022-08-05T08:45:23.884Z,54.72
2022-08-05T08:50:11.319Z,54.08
2022-08-05T08:55:13.179Z,53.11
2022-08-05T09:00:19.290Z,53.03
2022-08-05T09:05:38.495Z,52.74
2022-08-05T09:10:46.917Z,51.39
2022-08-05T09:15:49.928Z,51.24
2022-08-05T09:20:52.748Z,51.24
2022-08-05T09:26:20.729Z,49.60
2022-08-05T09:32:42.089Z,48.37
2022-08-05T09:36:56.412Z,46.83
2022-08-05T09:42:04.507Z,47.27
2022-08-05T09:47:16.480Z,46.60
2022-08-05T09:52:32.032Z,45.79
2022-08-05T09:57:43.413Z,44.71
2022-08-05T10:02:48.449Z,43.02
2022-08-05T10:08:35.203Z,40.96
2022-08-05T10:13:45.779Z,39.92
2022-08-05T10:18:51.446Z,39.48
2022-08-05T10:23:59.646Z,36.22
2022-08-05T10:29:03.135Z,34.62
2022-08-05T10:34:08.075Z,33.69
2022-08-05T10:39:25.139Z,32.09
2022-08-05T10:44:46.029Z,31.33
2022-08-05T10:50:32.364Z,30.77
2022-08-05T10:56:03.705Z,28.67
2022-08-05T11:01:02.910Z,27.97
2022-08-05T11:06:16.184Z,27.00
2022-08-05T11:11:44.882Z,25.66
2022-08-05T11:17:58.066Z,24.67
2022-08-05T11:22:53.980Z,24.05
2022-08-05T11:28:12.014Z,22.86
2022-08-05T11:33:46.322Z,21.76
2022-08-05T11:38:54.633Z,21.05
2022-08-05T11:44:07.167Z,20.32
2022-08-05T11:49:16.897Z,19.79
2022-08-05T11:54:34.020Z,19.39
2022-08-05T11:59:49.339Z,19.80
2022-08-05T12:04:59.545Z,18.61
2022-08-05T12:10:09.189Z,18.59
2022-08-05T12:15:37.895Z,18.96
2022-08-05T12:20:41.852Z,17.35
2022-08-05T12:25:56.772Z,17.49
2022-08-05T12:31:01.944Z,17.26
2022-08-05T12:36:09.401Z,16.81
2022-08-05T12:41:14.293Z,16.47
2022-08-05T12:46:31.830Z,17.02
2022-08-05T12:52:12.629Z,16.70
2022-08-05T12:57:15.776Z,14.87
2022-08-05T13:02:30.318Z,15.18
2022-08-05T13:07:59.435Z,15.67
2022-08-05T13:12:57.975Z,15.28
2022-08-05T13:18:02.195Z,14.70
2022-08-05T13:23:07.315Z,15.82
2022-08-05T13:28:10.809Z,15.14
2022-08-05T13:33:14.438Z,14.08
2022-08-05T13:38:41.943Z,14.49
2022-08-05T13:43:55.213Z,13.70
2022-08-05T13:49:00.648Z,12.87
2022-08-05T13:54:11.947Z,12.77
2022-08-05T13:59:20.277Z,12.78
2022-08-05T14:04:43.013Z,12.92
2022-08-05T14:09:53.152Z,12.98
2022-08-05T14:14:56.140Z,12.40
2022-08-05T14:20:04.652Z,12.39
2022-08-05T14:25:21.380Z,11.49
2022-08-05T14:30:26.611Z,12.27
2022-08-05T14:35:37.390Z,12.96
2022-08-05T14:40:54.237Z,12.34
2022-08-05T14:45:56.991Z,12.29
2022-08-05T14:50:59.711Z,13.36
2022-08-05T14:56:06.920Z,15.77
2022-08-05T15:01:11.207Z,17.31
2022-08-05T15:06:19.416Z,19.05
2022-08-05T15:11:50.978Z,20.86
2022-08-05T15:16:55.424Z,22.98
2022-08-05T15:22:01.263Z,24.07
2022-08-05T15:27:04.335Z,25.75
2022-08-05T15:32:12.061Z,25.99
2022-08-05T15:37:19.412Z,27.63
2022-08-05T15:42:54.817Z,27.74
2022-08-05T15:48:02.286Z,28.48
2022-08-05T15:53:05.889Z,28.76
2022-08-05T15:58:16.484Z,30.80
2022-08-05T16:03:19.870Z,31.08
2022-08-05T16:08:24.051Z,31.58
2022-08-05T16:13:34.171Z,31.78
2022-08-05T16:18:51.646Z,31.83
2022-08-05T16:23:58.046Z,32.43
2022-08-05T16:29:04.315Z,32.80
2022-08-05T16:34:11.253Z,33.64
2022-08-05T16:39:14.457Z,34.10
2022-08-05T16:44:17.940Z,34.42
2022-08-05T16:49:22.829Z,34.74
2022-08-05T16:54:31.964Z,36.19
2022-08-05T17:00:01.254Z,37.75
2022-08-05T17:04:58.720Z,39.01
2022-08-05T17:10:02.858Z,39.64
2022-08-05T17:15:07.578Z,39.47
2022-08-05T17:20:14.790Z,39.97
2022-08-05T17:25:33.496Z,40.43
2022-08-05T17:30:50.579Z,40.98
2022-08-05T17:36:07.904Z,41.95
2022-08-05T17:42:16.518Z,43.19
2022-08-05T17:46:35.889Z,44.94
2022-08-05T17:51:40.180Z,45.39
2022-08-05T17:56:44.686Z,46.63
2022-08-05T18:01:51.831Z,47.75
2022-08-05T18:06:54.855Z,48.79
2022-08-05T18:12:05.227Z,49.99
2022-08-05T18:18:00.202Z,50.56
2022-08-05T18:22:46.208Z,51.47
2022-08-05T18:27:54.216Z,52.82
2022-08-05T18:33:00.290Z,53.46
2022-08-05T18:38:03.976Z,54.56
2022-08-05T18:43:09.210Z,54.66
2022-08-05T18:48:31.652Z,55.56
2022-08-05T18:53:45.672Z,56.26
2022-08-05T18:58:54.736Z,56.95
2022-08-05T19:04:05.390Z,57.10
2022-08-05T19:09:08.836Z,57.29
2022-08-05T19:14:44.465Z,57.62
2022-08-05T19:19:34.372Z,58.30
2022-08-05T19:24:37.232Z,58.79
2022-08-05T19:29:57.961Z,59.12
2022-08-05T19:35:05.689Z,59.47
2022-08-05T19:40:10.750Z,60.03
2022-08-05T19:45:14.469Z,60.39
2022-08-05T19:50:17.572Z,60.59
2022-08-05T19:56:13.728Z,61.20
2022-08-05T20:00:43.162Z,61.75
2022-08-05T20:05:51.415Z,61.94
2022-08-05T20:10:55.248Z,62.25
2022-08-05T20:15:58.085Z,62.82
2022-08-05T20:21:06.656Z,63.19
2022-08-05T20:26:15.901Z,63.40
2022-08-05T20:31:28.395Z,63.69
2022-08-05T20:36:43.216Z,63.69
2022-08-05T20:41:49.213Z,63.98
2022-08-05T20:46:52.033Z,64.22
2022-08-05T20:51:56.004Z,64.39
2022-08-05T20:57:00.747Z,64.38
2022-08-05T21:02:06.518Z,64.68
2022-08-05T21:07:09.660Z,64.95
2022-08-05T21:12:35.186Z,65.34
2022-08-05T21:17:37.977Z,65.41
2022-08-05T21:22:40.809Z,65.25
2022-08-05T21:27:47.522Z,65.41
2022-08-05T21:32:50.689Z,65.69
2022-08-05T21:37:53.612Z,65.88
2022-08-05T21:42:59.011Z,65.92
2022-08-05T21:48:06.555Z,66.22
2022-08-05T21:53:16.683Z,66.44
2022-08-05T21:58:28.802Z,66.42
2022-08-05T22:03:52.560Z,66.41
2022-08-05T22:08:56.168Z,66.59
2022-08-05T22:14:31.327Z,66.36
2022-08-05T22:19:57.391Z,66.15
2022-08-05T22:25:04.139Z,66.24
2022-08-05T22:30:13.342Z,66.30
2022-08-05T22:35:16.242Z,66.11
2022-08-05T22:40:20.447Z,66.35
2022-08-05T22:45:26.383Z,66.28
2022-08-05T22:50:29.117Z,66.49
2022-08-05T22:55:37.123Z,66.39
2022-08-05T23:00:54.665Z,66.38
2022-08-05T23:06:00.003Z,66.40
2022-08-05T23:11:04.025Z,66.90
2022-08-05T23:16:06.879Z,66.80
2022-08-05T23:21:11.324Z,66.69
2022-08-05T23:26:20.228Z,66.84
2022-08-05T23:31:24.528Z,66.96
2022-08-05T23:36:28.340Z,67.15
2022-08-05T23:41:34.255Z,67.06
2022-08-05T23:46:40.382Z,67.16
2022-08-05T23:52:05.770Z,67.38
2022-08-05T23:57:08.761Z,67.35
